sensor_id;sensor_type;location;lat;lon;timestamp;temperature;humidity
530;DHT22;251;48.704;9.210;2023-08-12T00:01:35;18.90;53.60
530;DHT22;251;48.704;9.210;2023-08-12T00:04:04;18.90;53.00
530;DHT22;251;48.704;9.210;2023-08-12T00:06:31;18.90;53.40
530;DHT22;251;48.704;9.210;2023-08-12T00:08:58;18.90;52.90
530;DHT22;251;48.704;9.210;2023-08-12T00:11:24;18.90;53.10
530;DHT22;251;48.704;9.210;2023-08-12T00:13:51;18.90;53.40
530;DHT22;251;48.704;9.210;2023-08-12T00:16:18;18.90;52.20
530;DHT22;251;48.704;9.210;2023-08-12T00:18:44;18.80;51.50
530;DHT22;251;48.704;9.210;2023-08-12T00:21:13;18.80;53.20
530;DHT22;251;48.704;9.210;2023-08-12T00:23:41;18.80;55.40
530;DHT22;251;48.704;9.210;2023-08-12T00:26:08;18.80;53.40
530;DHT22;251;48.704;9.210;2023-08-12T00:28:35;18.80;53.40
530;DHT22;251;48.704;9.210;2023-08-12T00:31:03;18.70;55.10
530;DHT22;251;48.704;9.210;2023-08-12T00:33:30;18.70;54.90
530;DHT22;251;48.704;9.210;2023-08-12T00:35:56;18.70;55.60
530;DHT22;251;48.704;9.210;2023-08-12T00:38:24;18.60;55.90
530;DHT22;251;48.704;9.210;2023-08-12T00:40:51;18.60;54.90
530;DHT22;251;48.704;9.210;2023-08-12T00:43:18;18.60;56.20
530;DHT22;251;48.704;9.210;2023-08-12T00:45:45;18.50;56.50
530;DHT22;251;48.704;9.210;2023-08-12T00:48:12;18.50;55.50
530;DHT22;251;48.704;9.210;2023-08-12T00:50:39;18.40;55.50
530;DHT22;251;48.704;9.210;2023-08-12T00:53:07;18.40;55.80
530;DHT22;251;48.704;9.210;2023-08-12T00:55:36;18.30;57.50
530;DHT22;251;48.704;9.210;2023-08-12T00:58:03;18.30;56.40
530;DHT22;251;48.704;9.210;2023-08-12T01:00:31;18.30;57.80
530;DHT22;251;48.704;9.210;2023-08-12T01:03:01;18.20;58.60
530;DHT22;251;48.704;9.210;2023-08-12T01:05:30;18.20;58.90
530;DHT22;251;48.704;9.210;2023-08-12T01:07:57;18.20;58.10
530;DHT22;251;48.704;9.210;2023-08-12T01:10:27;18.10;57.50
530;DHT22;251;48.704;9.210;2023-08-12T01:13:06;18.10;58.40
530;DHT22;251;48.704;9.210;2023-08-12T01:15:34;18.10;58.80
530;DHT22;251;48.704;9.210;2023-08-12T01:18:02;18.10;58.80
530;DHT22;251;48.704;9.210;2023-08-12T01:20:29;18.10;60.90
530;DHT22;251;48.704;9.210;2023-08-12T01:22:57;18.10;61.20
530;DHT22;251;48.704;9.210;2023-08-12T01:25:25;18.10;59.10
530;DHT22;251;48.704;9.210;2023-08-12T01:27:52;18.00;59.10
530;DHT22;251;48.704;9.210;2023-08-12T01:30:20;18.10;59.00
530;DHT22;251;48.704;9.210;2023-08-12T01:32:53;18.00;59.90
530;DHT22;251;48.704;9.210;2023-08-12T01:35:23;17.90;60.90
530;DHT22;251;48.704;9.210;2023-08-12T01:37:52;17.90;61.80
530;DHT22;251;48.704;9.210;2023-08-12T01:40:21;18.00;60.60
530;DHT22;251;48.704;9.210;2023-08-12T01:42:50;18.00;58.70
530;DHT22;251;48.704;9.210;2023-08-12T01:45:18;17.90;59.70
530;DHT22;251;48.704;9.210;2023-08-12T01:47:46;17.90;58.70
530;DHT22;251;48.704;9.210;2023-08-12T01:50:15;17.90;58.60
530;DHT22;251;48.704;9.210;2023-08-12T01:52:42;17.90;61.10
530;DHT22;251;48.704;9.210;2023-08-12T01:55:09;17.90;62.00
530;DHT22;251;48.704;9.210;2023-08-12T01:57:35;17.90;62.20
530;DHT22;251;48.704;9.210;2023-08-12T02:00:06;17.80;62.20
530;DHT22;251;48.704;9.210;2023-08-12T02:02:43;17.80;61.80
530;DHT22;251;48.704;9.210;2023-08-12T02:05:12;17.80;61.90
530;DHT22;251;48.704;9.210;2023-08-12T02:07:39;17.80;62.80
530;DHT22;251;48.704;9.210;2023-08-12T02:10:09;17.80;62.30
530;DHT22;251;48.704;9.210;2023-08-12T02:12:36;17.80;61.70
530;DHT22;251;48.704;9.210;2023-08-12T02:15:06;17.80;63.20
530;DHT22;251;48.704;9.210;2023-08-12T02:17:32;17.80;64.30
530;DHT22;251;48.704;9.210;2023-08-12T02:19:59;17.80;64.10
530;DHT22;251;48.704;9.210;2023-08-12T02:22:26;17.80;63.90
530;DHT22;251;48.704;9.210;2023-08-12T02:24:53;17.80;63.60
530;DHT22;251;48.704;9.210;2023-08-12T02:27:20;17.80;65.70
530;DHT22;251;48.704;9.210;2023-08-12T02:29:47;17.80;64.90
530;DHT22;251;48.704;9.210;2023-08-12T02:32:16;17.90;66.60
530;DHT22;251;48.704;9.210;2023-08-12T02:34:42;17.90;67.20
530;DHT22;251;48.704;9.210;2023-08-12T02:37:09;17.90;66.10
530;DHT22;251;48.704;9.210;2023-08-12T02:39:38;17.90;67.00
530;DHT22;251;48.704;9.210;2023-08-12T02:42:05;17.90;67.60
530;DHT22;251;48.704;9.210;2023-08-12T02:44:32;17.90;67.40
530;DHT22;251;48.704;9.210;2023-08-12T02:46:58;17.90;68.10
530;DHT22;251;48.704;9.210;2023-08-12T02:49:27;17.90;68.80
530;DHT22;251;48.704;9.210;2023-08-12T02:51:53;17.90;68.10
530;DHT22;251;48.704;9.210;2023-08-12T02:54:20;17.90;66.90
530;DHT22;251;48.704;9.210;2023-08-12T02:56:47;17.90;68.40
530;DHT22;251;48.704;9.210;2023-08-12T02:59:14;17.90;68.90
530;DHT22;251;48.704;9.210;2023-08-12T03:01:41;17.90;70.20
530;DHT22;251;48.704;9.210;2023-08-12T03:04:08;17.90;69.40
530;DHT22;251;48.704;9.210;2023-08-12T03:06:36;18.00;69.70
530;DHT22;251;48.704;9.210;2023-08-12T03:09:03;18.00;71.30
530;DHT22;251;48.704;9.210;2023-08-12T03:11:30;18.00;71.70
530;DHT22;251;48.704;9.210;2023-08-12T03:13:58;18.00;70.30
530;DHT22;251;48.704;9.210;2023-08-12T03:16:26;18.00;70.40
530;DHT22;251;48.704;9.210;2023-08-12T03:18:53;18.00;71.20
530;DHT22;251;48.704;9.210;2023-08-12T03:21:20;18.00;70.10
530;DHT22;251;48.704;9.210;2023-08-12T03:23:49;18.00;69.80
530;DHT22;251;48.704;9.210;2023-08-12T03:26:15;18.00;70.90
530;DHT22;251;48.704;9.210;2023-08-12T03:28:42;18.00;71.50
530;DHT22;251;48.704;9.210;2023-08-12T03:31:13;18.10;70.60
530;DHT22;251;48.704;9.210;2023-08-12T03:33:40;18.10;70.30
530;DHT22;251;48.704;9.210;2023-08-12T03:36:07;18.00;71.20
530;DHT22;251;48.704;9.210;2023-08-12T03:38:33;18.00;72.20
530;DHT22;251;48.704;9.210;2023-08-12T03:41:03;18.00;72.30
530;DHT22;251;48.704;9.210;2023-08-12T03:43:32;18.00;72.80
530;DHT22;251;48.704;9.210;2023-08-12T03:46:00;18.10;72.50
530;DHT22;251;48.704;9.210;2023-08-12T03:48:27;18.10;72.20
530;DHT22;251;48.704;9.210;2023-08-12T03:50:56;18.10;72.20
530;DHT22;251;48.704;9.210;2023-08-12T03:53:22;18.10;72.20
530;DHT22;251;48.704;9.210;2023-08-12T03:55:51;18.20;72.30
530;DHT22;251;48.704;9.210;2023-08-12T03:58:19;18.30;71.10
530;DHT22;251;48.704;9.210;2023-08-12T04:00:46;18.30;72.30
530;DHT22;251;48.704;9.210;2023-08-12T04:03:15;18.30;71.70
530;DHT22;251;48.704;9.210;2023-08-12T04:05:47;18.30;73.10
530;DHT22;251;48.704;9.210;2023-08-12T04:08:15;18.30;72.40
530;DHT22;251;48.704;9.210;2023-08-12T04:10:44;18.30;71.70
530;DHT22;251;48.704;9.210;2023-08-12T04:13:11;18.30;72.30
530;DHT22;251;48.704;9.210;2023-08-12T04:15:39;18.30;74.90
530;DHT22;251;48.704;9.210;2023-08-12T04:18:06;18.30;74.70
530;DHT22;251;48.704;9.210;2023-08-12T04:20:34;18.30;73.50
530;DHT22;251;48.704;9.210;2023-08-12T04:23:01;18.30;72.40
530;DHT22;251;48.704;9.210;2023-08-12T04:25:29;18.40;72.80
530;DHT22;251;48.704;9.210;2023-08-12T04:27:56;18.40;74.60
530;DHT22;251;48.704;9.210;2023-08-12T04:30:23;18.40;76.20
530;DHT22;251;48.704;9.210;2023-08-12T04:32:53;18.40;76.50
530;DHT22;251;48.704;9.210;2023-08-12T04:35:20;18.40;76.40
530;DHT22;251;48.704;9.210;2023-08-12T04:37:49;18.40;76.00
530;DHT22;251;48.704;9.210;2023-08-12T04:40:17;18.40;75.20
530;DHT22;251;48.704;9.210;2023-08-12T04:42:45;18.40;76.90
530;DHT22;251;48.704;9.210;2023-08-12T04:45:12;18.40;76.00
530;DHT22;251;48.704;9.210;2023-08-12T04:47:39;18.40;78.20
530;DHT22;251;48.704;9.210;2023-08-12T04:50:08;18.40;78.50
530;DHT22;251;48.704;9.210;2023-08-12T04:52:36;18.40;77.30
530;DHT22;251;48.704;9.210;2023-08-12T04:55:04;18.40;76.60
530;DHT22;251;48.704;9.210;2023-08-12T04:57:31;18.50;73.80
530;DHT22;251;48.704;9.210;2023-08-12T04:59:58;18.50;74.60
530;DHT22;251;48.704;9.210;2023-08-12T05:02:24;18.60;75.50
530;DHT22;251;48.704;9.210;2023-08-12T05:04:52;18.60;77.70
530;DHT22;251;48.704;9.210;2023-08-12T05:07:21;18.60;81.30
530;DHT22;251;48.704;9.210;2023-08-12T05:09:48;18.70;85.30
530;DHT22;251;48.704;9.210;2023-08-12T05:12:16;18.70;81.70
530;DHT22;251;48.704;9.210;2023-08-12T05:14:42;18.80;81.40
530;DHT22;251;48.704;9.210;2023-08-12T05:17:09;18.80;82.30
530;DHT22;251;48.704;9.210;2023-08-12T05:19:37;18.90;83.90
530;DHT22;251;48.704;9.210;2023-08-12T05:22:04;18.90;85.80
530;DHT22;251;48.704;9.210;2023-08-12T05:24:32;19.00;78.00
530;DHT22;251;48.704;9.210;2023-08-12T05:26:58;19.00;77.70
530;DHT22;251;48.704;9.210;2023-08-12T05:29:25;19.10;76.00
530;DHT22;251;48.704;9.210;2023-08-12T05:31:52;19.10;76.70
530;DHT22;251;48.704;9.210;2023-08-12T05:34:19;19.20;77.30
530;DHT22;251;48.704;9.210;2023-08-12T05:36:46;19.30;76.80
530;DHT22;251;48.704;9.210;2023-08-12T05:39:13;19.30;68.70
530;DHT22;251;48.704;9.210;2023-08-12T05:41:42;19.30;73.10
530;DHT22;251;48.704;9.210;2023-08-12T05:44:10;19.30;75.20
530;DHT22;251;48.704;9.210;2023-08-12T05:46:37;19.40;83.40
530;DHT22;251;48.704;9.210;2023-08-12T05:49:04;19.40;78.10
530;DHT22;251;48.704;9.210;2023-08-12T05:51:30;19.50;80.60
530;DHT22;251;48.704;9.210;2023-08-12T05:53:57;19.60;78.00
530;DHT22;251;48.704;9.210;2023-08-12T05:56:24;19.70;75.40
530;DHT22;251;48.704;9.210;2023-08-12T05:58:52;19.80;73.40
530;DHT22;251;48.704;9.210;2023-08-12T06:01:19;19.80;67.00
530;DHT22;251;48.704;9.210;2023-08-12T06:03:46;19.90;66.30
530;DHT22;251;48.704;9.210;2023-08-12T06:06:12;19.90;65.80
530;DHT22;251;48.704;9.210;2023-08-12T06:08:39;20.00;69.00
530;DHT22;251;48.704;9.210;2023-08-12T06:11:06;20.00;66.10
530;DHT22;251;48.704;9.210;2023-08-12T06:13:33;20.00;69.10
530;DHT22;251;48.704;9.210;2023-08-12T06:16:01;20.00;77.40
530;DHT22;251;48.704;9.210;2023-08-12T06:18:28;20.00;74.80
530;DHT22;251;48.704;9.210;2023-08-12T06:20:54;20.00;70.20
530;DHT22;251;48.704;9.210;2023-08-12T06:23:21;20.10;67.80
530;DHT22;251;48.704;9.210;2023-08-12T06:25:48;20.10;66.20
530;DHT22;251;48.704;9.210;2023-08-12T06:28:15;20.20;63.30
530;DHT22;251;48.704;9.210;2023-08-12T06:30:44;20.30;62.00
530;DHT22;251;48.704;9.210;2023-08-12T06:33:14;20.30;64.60
530;DHT22;251;48.704;9.210;2023-08-12T06:35:42;20.40;66.80
530;DHT22;251;48.704;9.210;2023-08-12T06:38:08;20.50;63.00
530;DHT22;251;48.704;9.210;2023-08-12T06:40:37;20.60;58.50
530;DHT22;251;48.704;9.210;2023-08-12T06:43:04;20.70;57.70
530;DHT22;251;48.704;9.210;2023-08-12T06:45:32;20.80;53.60
530;DHT22;251;48.704;9.210;2023-08-12T06:47:59;20.90;54.20
530;DHT22;251;48.704;9.210;2023-08-12T06:50:28;20.90;54.00
530;DHT22;251;48.704;9.210;2023-08-12T06:52:56;20.90;52.70
530;DHT22;251;48.704;9.210;2023-08-12T06:55:23;21.10;53.30
530;DHT22;251;48.704;9.210;2023-08-12T06:57:49;21.30;52.20
530;DHT22;251;48.704;9.210;2023-08-12T07:00:16;21.50;48.60
530;DHT22;251;48.704;9.210;2023-08-12T07:02:43;21.70;46.50
530;DHT22;251;48.704;9.210;2023-08-12T07:05:10;21.90;43.10
530;DHT22;251;48.704;9.210;2023-08-12T07:07:38;22.00;42.40
530;DHT22;251;48.704;9.210;2023-08-12T07:10:05;22.10;38.10
530;DHT22;251;48.704;9.210;2023-08-12T07:12:32;22.30;37.90
530;DHT22;251;48.704;9.210;2023-08-12T07:15:00;22.50;38.50
530;DHT22;251;48.704;9.210;2023-08-12T07:17:27;22.60;34.40
530;DHT22;251;48.704;9.210;2023-08-12T07:19:54;22.80;31.10
530;DHT22;251;48.704;9.210;2023-08-12T07:22:20;22.90;30.00
530;DHT22;251;48.704;9.210;2023-08-12T07:24:48;23.00;30.30
530;DHT22;251;48.704;9.210;2023-08-12T07:27:17;23.10;28.20
530;DHT22;251;48.704;9.210;2023-08-12T07:29:45;23.20;28.30
530;DHT22;251;48.704;9.210;2023-08-12T07:32:12;23.30;26.70
530;DHT22;251;48.704;9.210;2023-08-12T07:34:38;23.40;26.30
530;DHT22;251;48.704;9.210;2023-08-12T07:37:05;23.40;25.20
530;DHT22;251;48.704;9.210;2023-08-12T07:39:32;23.50;26.10
530;DHT22;251;48.704;9.210;2023-08-12T07:42:00;23.50;26.00
530;DHT22;251;48.704;9.210;2023-08-12T07:44:27;23.70;25.80
530;DHT22;251;48.704;9.210;2023-08-12T07:46:54;23.80;25.50
530;DHT22;251;48.704;9.210;2023-08-12T07:49:21;23.90;25.60
530;DHT22;251;48.704;9.210;2023-08-12T07:51:48;24.00;26.20
530;DHT22;251;48.704;9.210;2023-08-12T07:54:15;23.90;25.90
530;DHT22;251;48.704;9.210;2023-08-12T07:56:42;23.90;24.20
530;DHT22;251;48.704;9.210;2023-08-12T07:59:10;24.00;26.00
530;DHT22;251;48.704;9.210;2023-08-12T08:01:37;24.00;24.60
530;DHT22;251;48.704;9.210;2023-08-12T08:04:04;24.20;26.10
530;DHT22;251;48.704;9.210;2023-08-12T08:06:32;24.30;26.40
530;DHT22;251;48.704;9.210;2023-08-12T08:08:58;24.40;22.60
530;DHT22;251;48.704;9.210;2023-08-12T08:11:28;24.60;25.20
530;DHT22;251;48.704;9.210;2023-08-12T08:13:55;24.80;23.20
530;DHT22;251;48.704;9.210;2023-08-12T08:16:23;24.90;20.70
530;DHT22;251;48.704;9.210;2023-08-12T08:18:50;25.10;20.90
530;DHT22;251;48.704;9.210;2023-08-12T08:21:17;25.30;19.40
530;DHT22;251;48.704;9.210;2023-08-12T08:23:44;25.30;19.50
530;DHT22;251;48.704;9.210;2023-08-12T08:26:11;25.30;19.40
530;DHT22;251;48.704;9.210;2023-08-12T08:28:38;25.30;20.20
530;DHT22;251;48.704;9.210;2023-08-12T08:31:05;25.30;20.00
530;DHT22;251;48.704;9.210;2023-08-12T08:33:33;25.40;19.20
530;DHT22;251;48.704;9.210;2023-08-12T08:36:00;25.50;19.60
530;DHT22;251;48.704;9.210;2023-08-12T08:38:27;25.60;20.60
530;DHT22;251;48.704;9.210;2023-08-12T08:40:53;25.80;18.50
530;DHT22;251;48.704;9.210;2023-08-12T08:43:21;26.00;18.20
530;DHT22;251;48.704;9.210;2023-08-12T08:45:49;26.20;16.30
530;DHT22;251;48.704;9.210;2023-08-12T08:48:19;26.30;15.30
530;DHT22;251;48.704;9.210;2023-08-12T08:50:48;26.40;16.20
530;DHT22;251;48.704;9.210;2023-08-12T08:53:16;26.60;14.80
530;DHT22;251;48.704;9.210;2023-08-12T08:55:44;26.60;15.40
530;DHT22;251;48.704;9.210;2023-08-12T08:58:11;26.70;15.30
530;DHT22;251;48.704;9.210;2023-08-12T09:00:39;26.80;14.10
530;DHT22;251;48.704;9.210;2023-08-12T09:03:06;26.90;13.90
530;DHT22;251;48.704;9.210;2023-08-12T09:05:35;26.90;15.50
530;DHT22;251;48.704;9.210;2023-08-12T09:08:06;26.90;13.60
530;DHT22;251;48.704;9.210;2023-08-12T09:10:38;27.10;15.60
530;DHT22;251;48.704;9.210;2023-08-12T09:13:06;27.20;14.60
530;DHT22;251;48.704;9.210;2023-08-12T09:15:34;27.40;14.70
530;DHT22;251;48.704;9.210;2023-08-12T09:18:01;27.50;12.90
530;DHT22;251;48.704;9.210;2023-08-12T09:20:28;27.60;12.90
530;DHT22;251;48.704;9.210;2023-08-12T09:22:58;27.80;13.00
530;DHT22;251;48.704;9.210;2023-08-12T09:25:27;28.00;13.00
530;DHT22;251;48.704;9.210;2023-08-12T09:27:55;28.10;9.60
530;DHT22;251;48.704;9.210;2023-08-12T09:30:25;28.30;8.40
530;DHT22;251;48.704;9.210;2023-08-12T09:32:59;28.30;9.20
530;DHT22;251;48.704;9.210;2023-08-12T09:35:35;28.40;7.80
530;DHT22;251;48.704;9.210;2023-08-12T09:38:04;28.60;9.40
530;DHT22;251;48.704;9.210;2023-08-12T09:40:34;28.80;8.50
530;DHT22;251;48.704;9.210;2023-08-12T09:43:02;29.00;6.60
530;DHT22;251;48.704;9.210;2023-08-12T09:45:29;29.10;5.20
530;DHT22;251;48.704;9.210;2023-08-12T09:47:57;29.10;6.20
530;DHT22;251;48.704;9.210;2023-08-12T09:50:24;29.10;4.80
530;DHT22;251;48.704;9.210;2023-08-12T09:52:52;29.20;5.70
530;DHT22;251;48.704;9.210;2023-08-12T09:55:21;29.20;4.80
530;DHT22;251;48.704;9.210;2023-08-12T09:57:51;29.10;4.90
530;DHT22;251;48.704;9.210;2023-08-12T10:00:20;29.00;6.90
530;DHT22;251;48.704;9.210;2023-08-12T10:02:48;28.90;5.90
530;DHT22;251;48.704;9.210;2023-08-12T10:05:19;28.90;6.30
530;DHT22;251;48.704;9.210;2023-08-12T10:07:48;28.90;6.60
530;DHT22;251;48.704;9.210;2023-08-12T10:10:15;28.90;7.90
530;DHT22;251;48.704;9.210;2023-08-12T10:12:42;29.00;7.00
530;DHT22;251;48.704;9.210;2023-08-12T10:15:11;29.00;6.90
530;DHT22;251;48.704;9.210;2023-08-12T10:17:38;29.00;6.30
530;DHT22;251;48.704;9.210;2023-08-12T10:20:08;29.00;6.90
530;DHT22;251;48.704;9.210;2023-08-12T10:22:36;29.00;7.70
530;DHT22;251;48.704;9.210;2023-08-12T10:25:04;29.00;7.30
530;DHT22;251;48.704;9.210;2023-08-12T10:27:31;29.00;7.20
530;DHT22;251;48.704;9.210;2023-08-12T10:29:58;29.00;7.40
530;DHT22;251;48.704;9.210;2023-08-12T10:32:26;29.10;7.80
530;DHT22;251;48.704;9.210;2023-08-12T10:34:56;29.20;8.10
530;DHT22;251;48.704;9.210;2023-08-12T10:37:24;29.20;6.30
530;DHT22;251;48.704;9.210;2023-08-12T10:39:52;29.20;6.90
530;DHT22;251;48.704;9.210;2023-08-12T10:42:42;29.30;8.40
530;DHT22;251;48.704;9.210;2023-08-12T10:45:09;29.40;6.30
530;DHT22;251;48.704;9.210;2023-08-12T10:47:42;29.30;6.60
530;DHT22;251;48.704;9.210;2023-08-12T10:50:20;29.40;6.30
530;DHT22;251;48.704;9.210;2023-08-12T10:52:51;29.40;8.20
530;DHT22;251;48.704;9.210;2023-08-12T10:55:20;29.50;7.20
530;DHT22;251;48.704;9.210;2023-08-12T10:57:48;29.70;7.20
530;DHT22;251;48.704;9.210;2023-08-12T11:00:16;29.70;7.30
530;DHT22;251;48.704;9.210;2023-08-12T11:02:49;29.80;7.30
530;DHT22;251;48.704;9.210;2023-08-12T11:05:17;29.80;6.70
530;DHT22;251;48.704;9.210;2023-08-12T11:07:46;30.00;7.40
530;DHT22;251;48.704;9.210;2023-08-12T11:10:15;30.40;7.60
530;DHT22;251;48.704;9.210;2023-08-12T11:12:48;30.70;7.30
530;DHT22;251;48.704;9.210;2023-08-12T11:15:29;30.90;5.80
530;DHT22;251;48.704;9.210;2023-08-12T11:17:58;30.90;4.50
530;DHT22;251;48.704;9.210;2023-08-12T11:20:28;30.70;5.60
530;DHT22;251;48.704;9.210;2023-08-12T11:22:55;30.60;4.80
530;DHT22;251;48.704;9.210;2023-08-12T11:25:24;30.60;4.70
530;DHT22;251;48.704;9.210;2023-08-12T11:27:51;30.40;5.60
530;DHT22;251;48.704;9.210;2023-08-12T11:30:20;30.50;5.30
530;DHT22;251;48.704;9.210;2023-08-12T11:32:49;30.60;5.70
530;DHT22;251;48.704;9.210;2023-08-12T11:35:19;30.80;5.40
530;DHT22;251;48.704;9.210;2023-08-12T11:37:47;31.10;5.30
530;DHT22;251;48.704;9.210;2023-08-12T11:40:15;31.30;4.60
530;DHT22;251;48.704;9.210;2023-08-12T11:42:43;31.50;4.80
530;DHT22;251;48.704;9.210;2023-08-12T11:45:11;31.80;5.00
530;DHT22;251;48.704;9.210;2023-08-12T11:47:40;31.80;4.00
530;DHT22;251;48.704;9.210;2023-08-12T11:50:08;31.60;4.40
530;DHT22;251;48.704;9.210;2023-08-12T11:52:37;31.30;5.60
530;DHT22;251;48.704;9.210;2023-08-12T11:55:06;31.50;4.70
530;DHT22;251;48.704;9.210;2023-08-12T11:57:33;31.80;4.20
530;DHT22;251;48.704;9.210;2023-08-12T12:00:02;32.00;2.90
530;DHT22;251;48.704;9.210;2023-08-12T12:02:39;32.20;2.20
530;DHT22;251;48.704;9.210;2023-08-12T12:05:09;32.10;2.80
530;DHT22;251;48.704;9.210;2023-08-12T12:07:38;32.20;2.10
530;DHT22;251;48.704;9.210;2023-08-12T12:10:06;32.40;1.20
530;DHT22;251;48.704;9.210;2023-08-12T12:12:33;32.20;1.00
530;DHT22;251;48.704;9.210;2023-08-12T12:15:00;31.90;1.70
530;DHT22;251;48.704;9.210;2023-08-12T12:17:27;31.50;2.20
530;DHT22;251;48.704;9.210;2023-08-12T12:19:55;31.00;2.90
530;DHT22;251;48.704;9.210;2023-08-12T12:22:26;30.60;3.70
530;DHT22;251;48.704;9.210;2023-08-12T12:24:58;30.20;3.70
530;DHT22;251;48.704;9.210;2023-08-12T12:27:25;29.90;4.90
530;DHT22;251;48.704;9.210;2023-08-12T12:29:52;29.60;5.80
530;DHT22;251;48.704;9.210;2023-08-12T12:32:19;29.40;6.70
530;DHT22;251;48.704;9.210;2023-08-12T12:34:46;29.10;11.30
530;DHT22;251;48.704;9.210;2023-08-12T12:37:13;28.40;21.60
530;DHT22;251;48.704;9.210;2023-08-12T12:39:40;27.70;23.10
530;DHT22;251;48.704;9.210;2023-08-12T12:42:08;26.90;26.10
530;DHT22;251;48.704;9.210;2023-08-12T12:44:35;26.20;29.80
530;DHT22;251;48.704;9.210;2023-08-12T12:47:02;25.70;33.80
530;DHT22;251;48.704;9.210;2023-08-12T12:49:29;25.20;46.70
530;DHT22;251;48.704;9.210;2023-08-12T12:51:56;24.60;44.00
530;DHT22;251;48.704;9.210;2023-08-12T12:54:23;24.20;71.80
530;DHT22;251;48.704;9.210;2023-08-12T12:56:50;23.80;92.00
530;DHT22;251;48.704;9.210;2023-08-12T12:59:18;23.60;90.50
530;DHT22;251;48.704;9.210;2023-08-12T13:01:45;23.50;88.40
530;DHT22;251;48.704;9.210;2023-08-12T13:04:12;23.50;99.90
530;DHT22;251;48.704;9.210;2023-08-12T13:06:39;23.60;99.90
530;DHT22;251;48.704;9.210;2023-08-12T13:09:06;23.70;99.70
530;DHT22;251;48.704;9.210;2023-08-12T13:11:33;23.70;99.90
530;DHT22;251;48.704;9.210;2023-08-12T13:14:01;23.90;99.90
530;DHT22;251;48.704;9.210;2023-08-12T13:16:29;23.90;94.50
530;DHT22;251;48.704;9.210;2023-08-12T13:18:56;23.90;83.90
530;DHT22;251;48.704;9.210;2023-08-12T13:21:24;23.80;95.00
530;DHT22;251;48.704;9.210;2023-08-12T13:23:51;23.80;88.90
530;DHT22;251;48.704;9.210;2023-08-12T13:26:18;23.80;90.50
530;DHT22;251;48.704;9.210;2023-08-12T13:28:46;23.80;72.70
530;DHT22;251;48.704;9.210;2023-08-12T13:31:13;23.90;91.40
530;DHT22;251;48.704;9.210;2023-08-12T13:33:41;23.80;85.50
530;DHT22;251;48.704;9.210;2023-08-12T13:36:08;23.80;76.80
530;DHT22;251;48.704;9.210;2023-08-12T13:38:35;23.90;75.50
530;DHT22;251;48.704;9.210;2023-08-12T13:41:02;23.90;84.00
530;DHT22;251;48.704;9.210;2023-08-12T13:43:29;24.00;78.50
530;DHT22;251;48.704;9.210;2023-08-12T13:45:56;24.10;89.90
530;DHT22;251;48.704;9.210;2023-08-12T13:48:23;24.30;65.50
530;DHT22;251;48.704;9.210;2023-08-12T13:50:51;24.80;76.50
530;DHT22;251;48.704;9.210;2023-08-12T13:53:18;25.60;63.30
530;DHT22;251;48.704;9.210;2023-08-12T13:55:45;26.40;45.60
530;DHT22;251;48.704;9.210;2023-08-12T13:58:11;27.30;35.50
530;DHT22;251;48.704;9.210;2023-08-12T14:00:38;28.00;27.80
530;DHT22;251;48.704;9.210;2023-08-12T14:03:05;28.30;29.20
530;DHT22;251;48.704;9.210;2023-08-12T14:05:32;28.30;24.50
530;DHT22;251;48.704;9.210;2023-08-12T14:08:00;28.20;21.40
530;DHT22;251;48.704;9.210;2023-08-12T14:10:27;28.20;26.90
530;DHT22;251;48.704;9.210;2023-08-12T14:12:54;28.60;24.80
530;DHT22;251;48.704;9.210;2023-08-12T14:15:21;29.10;21.90
530;DHT22;251;48.704;9.210;2023-08-12T14:17:48;29.60;16.60
530;DHT22;251;48.704;9.210;2023-08-12T14:20:15;30.20;19.00
530;DHT22;251;48.704;9.210;2023-08-12T14:22:43;30.90;15.50
530;DHT22;251;48.704;9.210;2023-08-12T14:25:11;31.40;12.70
530;DHT22;251;48.704;9.210;2023-08-12T14:27:39;31.70;10.00
530;DHT22;251;48.704;9.210;2023-08-12T14:30:07;31.80;10.10
530;DHT22;251;48.704;9.210;2023-08-12T14:32:34;31.90;10.50
530;DHT22;251;48.704;9.210;2023-08-12T14:35:01;32.00;8.80
530;DHT22;251;48.704;9.210;2023-08-12T14:37:28;32.00;9.40
530;DHT22;251;48.704;9.210;2023-08-12T14:39:55;31.90;11.30
530;DHT22;251;48.704;9.210;2023-08-12T14:42:23;31.90;10.40
530;DHT22;251;48.704;9.210;2023-08-12T14:44:50;31.90;9.70
530;DHT22;251;48.704;9.210;2023-08-12T14:47:17;32.10;11.30
530;DHT22;251;48.704;9.210;2023-08-12T14:49:44;32.30;7.80
530;DHT22;251;48.704;9.210;2023-08-12T14:52:16;32.90;10.10
530;DHT22;251;48.704;9.210;2023-08-12T14:54:43;33.60;9.50
530;DHT22;251;48.704;9.210;2023-08-12T14:57:10;34.20;7.10
530;DHT22;251;48.704;9.210;2023-08-12T14:59:39;34.80;5.50
530;DHT22;251;48.704;9.210;2023-08-12T15:02:06;35.20;3.00
530;DHT22;251;48.704;9.210;2023-08-12T15:04:33;35.50;1.50
530;DHT22;251;48.704;9.210;2023-08-12T15:07:01;35.60;1.00
530;DHT22;251;48.704;9.210;2023-08-12T15:09:28;35.60;1.30
530;DHT22;251;48.704;9.210;2023-08-12T15:11:55;35.40;1.00
530;DHT22;251;48.704;9.210;2023-08-12T15:14:22;35.20;1.00
530;DHT22;251;48.704;9.210;2023-08-12T15:16:50;35.00;1.70
530;DHT22;251;48.704;9.210;2023-08-12T15:19:17;34.70;1.90
530;DHT22;251;48.704;9.210;2023-08-12T15:21:44;34.50;1.80
530;DHT22;251;48.704;9.210;2023-08-12T15:24:11;34.40;1.80
530;DHT22;251;48.704;9.210;2023-08-12T15:26:37;34.10;1.20
530;DHT22;251;48.704;9.210;2023-08-12T15:29:04;34.00;5.20
530;DHT22;251;48.704;9.210;2023-08-12T15:31:32;33.90;2.90
530;DHT22;251;48.704;9.210;2023-08-12T15:34:00;33.50;3.40
530;DHT22;251;48.704;9.210;2023-08-12T15:36:27;32.80;3.40
530;DHT22;251;48.704;9.210;2023-08-12T15:38:54;32.10;5.50
530;DHT22;251;48.704;9.210;2023-08-12T15:41:21;31.40;7.40
530;DHT22;251;48.704;9.210;2023-08-12T15:43:48;30.90;8.20
530;DHT22;251;48.704;9.210;2023-08-12T15:46:15;30.50;12.00
530;DHT22;251;48.704;9.210;2023-08-12T15:48:42;30.00;13.90
530;DHT22;251;48.704;9.210;2023-08-12T15:51:10;29.70;14.50
530;DHT22;251;48.704;9.210;2023-08-12T15:53:37;29.40;12.90
530;DHT22;251;48.704;9.210;2023-08-12T15:56:04;29.10;13.90
530;DHT22;251;48.704;9.210;2023-08-12T15:58:31;28.80;14.30
530;DHT22;251;48.704;9.210;2023-08-12T16:00:58;28.60;17.00
530;DHT22;251;48.704;9.210;2023-08-12T16:03:25;28.50;19.20
530;DHT22;251;48.704;9.210;2023-08-12T16:05:56;28.20;19.00
530;DHT22;251;48.704;9.210;2023-08-12T16:08:25;28.10;19.80
530;DHT22;251;48.704;9.210;2023-08-12T16:10:52;28.00;21.50
530;DHT22;251;48.704;9.210;2023-08-12T16:13:19;27.80;22.60
530;DHT22;251;48.704;9.210;2023-08-12T16:15:46;27.60;23.10
530;DHT22;251;48.704;9.210;2023-08-12T16:18:13;27.50;22.80
530;DHT22;251;48.704;9.210;2023-08-12T16:20:40;27.30;24.50
530;DHT22;251;48.704;9.210;2023-08-12T16:23:06;27.20;25.10
530;DHT22;251;48.704;9.210;2023-08-12T16:25:34;27.00;25.70
530;DHT22;251;48.704;9.210;2023-08-12T16:28:01;26.70;32.90
530;DHT22;251;48.704;9.210;2023-08-12T16:30:28;26.30;43.30
530;DHT22;251;48.704;9.210;2023-08-12T16:32:55;25.70;48.90
530;DHT22;251;48.704;9.210;2023-08-12T16:35:22;25.20;86.20
530;DHT22;251;48.704;9.210;2023-08-12T16:37:49;24.90;79.40
530;DHT22;251;48.704;9.210;2023-08-12T16:40:16;24.60;87.80
530;DHT22;251;48.704;9.210;2023-08-12T16:42:44;24.30;84.70